createdAt,value
2023-05-19T00:03:54.218Z,2.78
2023-05-19T00:08:00.589Z,2.53
2023-05-19T00:12:03.816Z,2.33
2023-05-19T00:16:07.421Z,2.50
2023-05-19T00:20:13.478Z,2.40
2023-05-19T00:24:16.326Z,2.25
2023-05-19T00:28:20.530Z,2.15
2023-05-19T00:32:23.514Z,2.38
2023-05-19T00:36:27.704Z,2.35
2023-05-19T00:40:33.281Z,2.95
2023-05-19T00:44:38.853Z,2.28
2023-05-19T00:48:42.009Z,2.42
2023-05-19T00:52:46.308Z,2.30
2023-05-19T00:56:49.927Z,2.40
2023-05-19T01:00:53.040Z,2.30
2023-05-19T01:04:57.604Z,2.65
2023-05-19T01:09:01.730Z,2.50
2023-05-19T01:13:05.423Z,2.28
2023-05-19T01:17:15.811Z,2.35
2023-05-19T01:21:51.754Z,2.25
2023-05-19T01:26:31.035Z,2.88
2023-05-19T01:30:39.902Z,2.35
2023-05-19T01:34:45.231Z,2.47
2023-05-19T01:38:50.326Z,3.05
2023-05-19T01:42:57.392Z,2.60
2023-05-19T01:47:03.617Z,2.47
2023-05-19T01:51:06.635Z,3.35
2023-05-19T01:55:10.473Z,2.55
2023-05-19T01:59:29.549Z,2.78
2023-05-19T02:03:48.265Z,2.53
2023-05-19T02:08:07.192Z,2.72
2023-05-19T02:12:17.981Z,2.45
2023-05-19T02:16:24.331Z,2.55
2023-05-19T02:20:28.699Z,3.00
2023-05-19T02:24:32.518Z,2.70
2023-05-19T02:28:36.491Z,2.67
2023-05-19T02:32:39.627Z,2.80
2023-05-19T02:36:44.238Z,2.70
2023-05-19T02:40:47.180Z,2.40
2023-05-19T02:44:50.592Z,1.95
2023-05-19T02:48:54.149Z,2.20
2023-05-19T02:52:58.596Z,2.50
2023-05-19T02:57:01.683Z,2.50
2023-05-19T03:01:04.538Z,2.58
2023-05-19T03:05:10.269Z,2.60
2023-05-19T03:09:15.188Z,2.55
2023-05-19T03:13:18.104Z,2.70
2023-05-19T03:17:21.089Z,2.63
2023-05-19T03:21:24.466Z,3.10
2023-05-19T03:25:30.107Z,2.55
2023-05-19T03:29:33.307Z,2.60
2023-05-19T03:33:36.323Z,2.90
2023-05-19T03:37:39.363Z,3.08
2023-05-19T03:41:43.635Z,2.92
2023-05-19T03:45:46.672Z,3.00
2023-05-19T03:50:09.883Z,3.05
2023-05-19T03:54:24.315Z,2.80
2023-05-19T03:58:30.058Z,2.92
2023-05-19T04:02:33.034Z,3.08
2023-05-19T04:06:36.243Z,2.65
2023-05-19T04:10:39.130Z,3.30
2023-05-19T04:14:43.278Z,3.10
2023-05-19T04:18:47.930Z,2.78
2023-05-19T04:22:50.874Z,3.10
2023-05-19T04:26:53.851Z,3.15
2023-05-19T04:30:58.792Z,3.00
2023-05-19T04:35:03.190Z,2.83
2023-05-19T04:39:08.548Z,3.15
2023-05-19T04:43:11.814Z,3.22
2023-05-19T04:47:18.017Z,3.00
2023-05-19T04:51:21.941Z,3.63
2023-05-19T04:55:25.178Z,3.10
2023-05-19T04:59:28.150Z,3.20
2023-05-19T05:03:34.557Z,3.65
2023-05-19T05:07:37.520Z,3.30
2023-05-19T05:11:41.157Z,3.53
2023-05-19T05:15:45.372Z,3.70
2023-05-19T05:19:51.483Z,2.90
2023-05-19T05:23:55.224Z,3.50
2023-05-19T05:28:04.913Z,3.85
2023-05-19T05:32:09.129Z,3.28
2023-05-19T05:36:14.559Z,3.30
2023-05-19T05:40:17.725Z,3.40
2023-05-19T05:44:20.600Z,3.60
2023-05-19T05:48:24.184Z,3.05
2023-05-19T05:52:32.329Z,3.42
2023-05-19T05:56:37.500Z,3.25
2023-05-19T06:00:45.297Z,3.28
2023-05-19T06:04:48.338Z,3.50
2023-05-19T06:08:52.602Z,3.30
2023-05-19T06:12:56.254Z,3.10
2023-05-19T06:16:59.976Z,3.20
2023-05-19T06:21:04.926Z,3.03
2023-05-19T06:25:09.980Z,3.22
2023-05-19T06:29:12.806Z,3.05
2023-05-19T06:33:16.638Z,3.33
2023-05-19T06:37:19.706Z,2.95
2023-05-19T06:41:23.965Z,3.28
2023-05-19T06:45:27.956Z,3.22
2023-05-19T06:49:32.652Z,3.25
2023-05-19T06:53:36.310Z,3.20
2023-05-19T06:57:45.336Z,2.90
2023-05-19T07:01:49.483Z,2.47
2023-05-19T07:05:53.499Z,2.75
2023-05-19T07:09:56.474Z,2.05
2023-05-19T07:14:00.856Z,1.88
2023-05-19T07:18:13.130Z,2.45
2023-05-19T07:22:16.376Z,1.70
2023-05-19T07:26:19.404Z,1.88
2023-05-19T07:30:23.891Z,1.83
2023-05-19T07:34:26.812Z,2.17
2023-05-19T07:38:31.429Z,2.15
2023-05-19T07:42:36.838Z,2.15
2023-05-19T07:46:41.424Z,2.10
2023-05-19T07:50:44.442Z,1.70
2023-05-19T07:54:47.630Z,2.00
2023-05-19T07:58:51.001Z,2.20
2023-05-19T08:02:56.994Z,1.70
2023-05-19T08:07:02.005Z,2.00
2023-05-19T08:11:05.238Z,2.00
2023-05-19T08:15:11.774Z,1.98
2023-05-19T08:19:16.301Z,2.08
2023-05-19T08:23:19.501Z,1.92
2023-05-19T08:27:22.429Z,2.15
2023-05-19T08:31:25.599Z,1.88
2023-05-19T08:35:29.811Z,1.85
2023-05-19T08:39:34.193Z,1.67
2023-05-19T08:43:37.150Z,1.33
2023-05-19T08:47:40.875Z,1.73
2023-05-19T08:51:51.520Z,1.83
2023-05-19T08:56:02.276Z,1.92
2023-05-19T09:00:09.133Z,2.20
2023-05-19T09:04:12.262Z,1.73
2023-05-19T09:08:16.576Z,1.95
2023-05-19T09:12:19.800Z,2.17
2023-05-19T09:16:22.920Z,1.73
2023-05-19T09:20:25.895Z,1.75
2023-05-19T09:24:31.818Z,2.30
2023-05-19T09:28:36.466Z,1.65
2023-05-19T09:32:42.055Z,1.90
2023-05-19T09:36:45.552Z,1.75
2023-05-19T09:40:51.587Z,2.30
2023-05-19T09:45:02.926Z,1.95
2023-05-19T09:49:10.537Z,2.40
2023-05-19T09:53:15.137Z,1.80
2023-05-19T09:57:19.388Z,2.28
2023-05-19T10:01:23.111Z,2.78
2023-05-19T10:05:27.773Z,2.40
2023-05-19T10:09:30.823Z,2.30
2023-05-19T10:13:38.509Z,2.42
2023-05-19T10:17:42.475Z,2.10
2023-05-19T10:21:45.391Z,1.95
2023-05-19T10:25:50.500Z,1.77
2023-05-19T10:30:00.278Z,2.05
2023-05-19T10:34:24.190Z,1.77
2023-05-19T10:38:34.466Z,1.60
2023-05-19T10:42:42.929Z,2.00
2023-05-19T10:46:47.269Z,1.67
2023-05-19T10:50:54.274Z,1.83
2023-05-19T10:54:58.352Z,1.60
2023-05-19T10:59:02.098Z,1.52
2023-05-19T11:03:15.979Z,2.13
2023-05-19T11:07:20.486Z,1.63
2023-05-19T11:11:23.654Z,1.52
2023-05-19T11:15:28.230Z,1.60
2023-05-19T11:19:33.739Z,2.00
2023-05-19T11:23:40.554Z,1.77
2023-05-19T11:27:47.227Z,1.98
2023-05-19T11:31:50.630Z,1.50
2023-05-19T11:35:58.735Z,1.90
2023-05-19T11:40:04.757Z,1.85
2023-05-19T11:44:11.702Z,1.83
2023-05-19T11:48:15.976Z,1.98
2023-05-19T11:52:22.930Z,1.38
2023-05-19T11:56:25.981Z,1.98
2023-05-19T12:00:30.235Z,1.90
2023-05-19T12:04:33.070Z,1.83
2023-05-19T12:08:38.349Z,1.77
2023-05-19T12:12:45.051Z,1.73
2023-05-19T12:16:47.907Z,1.80
2023-05-19T12:20:51.040Z,1.67
2023-05-19T12:24:55.685Z,2.17
2023-05-19T12:28:59.835Z,1.88
2023-05-19T12:33:03.496Z,1.67
2023-05-19T12:37:07.243Z,1.80
2023-05-19T12:41:13.689Z,2.03
2023-05-19T12:45:16.820Z,1.75
2023-05-19T12:49:19.722Z,1.80
2023-05-19T12:53:22.876Z,2.20
2023-05-19T12:57:29.635Z,1.70
2023-05-19T13:01:32.480Z,1.60
2023-05-19T13:05:39.047Z,1.67
2023-05-19T13:09:42.202Z,1.90
2023-05-19T13:13:47.173Z,1.90
2023-05-19T13:17:50.216Z,1.58
2023-05-19T13:21:53.031Z,2.17
2023-05-19T13:25:56.054Z,1.70
2023-05-19T13:30:00.407Z,1.60
2023-05-19T13:34:04.147Z,2.08
2023-05-19T13:38:08.102Z,1.77
2023-05-19T13:42:10.928Z,1.50
2023-05-19T13:46:15.237Z,1.83
2023-05-19T13:50:18.096Z,1.90
2023-05-19T13:54:20.899Z,2.03
2023-05-19T13:58:23.709Z,1.60
2023-05-19T14:02:27.888Z,2.50
2023-05-19T14:06:31.026Z,2.45
2023-05-19T14:10:35.033Z,1.70
2023-05-19T14:14:38.220Z,1.65
2023-05-19T14:18:42.498Z,1.85
2023-05-19T14:22:45.656Z,1.65
2023-05-19T14:26:49.549Z,1.80
2023-05-19T14:30:53.265Z,1.95
2023-05-19T14:34:57.466Z,1.98
2023-05-19T14:39:00.284Z,1.77
2023-05-19T14:43:03.519Z,1.73
2023-05-19T14:47:07.350Z,1.70
2023-05-19T14:51:11.790Z,1.50
2023-05-19T14:55:14.726Z,1.83
2023-05-19T14:59:17.836Z,1.70
2023-05-19T15:03:20.731Z,1.73
2023-05-19T15:07:25.467Z,1.77
2023-05-19T15:11:28.529Z,1.85
2023-05-19T15:15:31.627Z,1.50
2023-05-19T15:19:34.592Z,1.95
2023-05-19T15:23:38.833Z,1.80
2023-05-19T15:27:41.645Z,1.40
2023-05-19T15:31:44.691Z,1.92
2023-05-19T15:35:54.171Z,1.65
2023-05-19T15:39:58.528Z,1.88
2023-05-19T15:44:02.446Z,2.08
2023-05-19T15:48:05.749Z,1.60
2023-05-19T15:52:08.735Z,2.10
2023-05-19T15:56:13.965Z,1.85
2023-05-19T16:00:17.114Z,1.85
2023-05-19T16:04:20.061Z,1.77
2023-05-19T16:08:22.950Z,1.33
2023-05-19T16:12:27.820Z,1.75
2023-05-19T16:16:30.782Z,1.70
2023-05-19T16:20:34.265Z,1.65
2023-05-19T16:24:37.252Z,1.77
2023-05-19T16:28:41.420Z,1.80
2023-05-19T16:32:44.350Z,1.90
2023-05-19T16:36:47.184Z,1.55
2023-05-19T16:40:50.121Z,1.83
2023-05-19T16:44:54.657Z,1.50
2023-05-19T16:48:57.478Z,1.85
2023-05-19T16:53:00.360Z,1.80
2023-05-19T16:57:03.522Z,1.73
2023-05-19T17:01:07.741Z,1.50
2023-05-19T17:05:10.906Z,2.00
2023-05-19T17:09:14.821Z,2.20
2023-05-19T17:13:17.692Z,1.70
2023-05-19T17:17:21.900Z,1.70
2023-05-19T17:21:24.946Z,1.63
2023-05-19T17:25:27.725Z,1.80
2023-05-19T17:29:30.572Z,1.90
2023-05-19T17:33:34.876Z,1.63
2023-05-19T17:37:37.745Z,2.38
2023-05-19T17:41:40.550Z,2.20
2023-05-19T17:45:43.451Z,1.80
2023-05-19T17:49:48.749Z,1.80
2023-05-19T17:53:52.244Z,1.92
2023-05-19T17:57:55.586Z,1.77
2023-05-19T18:01:59.093Z,1.77
2023-05-19T18:06:03.589Z,1.90
2023-05-19T18:10:08.214Z,1.90
2023-05-19T18:14:11.276Z,1.55
2023-05-19T18:18:14.227Z,1.48
2023-05-19T18:22:18.575Z,1.45
2023-05-19T18:26:21.869Z,1.92
2023-05-19T18:30:24.800Z,1.80
2023-05-19T18:34:29.715Z,2.20
2023-05-19T18:38:34.018Z,1.40
2023-05-19T18:42:37.868Z,1.80
2023-05-19T18:46:40.829Z,1.60
2023-05-19T18:50:44.820Z,2.03
2023-05-19T18:54:50.374Z,2.15
2023-05-19T18:58:53.405Z,1.92
2023-05-19T19:02:56.581Z,2.10
2023-05-19T19:06:59.600Z,2.75
2023-05-19T19:11:05.319Z,2.20
2023-05-19T19:15:09.694Z,2.13
2023-05-19T19:19:12.730Z,2.30
2023-05-19T19:23:16.228Z,2.50
2023-05-19T19:27:21.447Z,2.50
2023-05-19T19:31:26.018Z,2.70
2023-05-19T19:35:29.218Z,2.63
2023-05-19T19:39:32.392Z,3.05
2023-05-19T19:43:36.896Z,2.90
2023-05-19T19:47:39.846Z,2.80
2023-05-19T19:51:43.348Z,2.78
2023-05-19T19:55:46.478Z,2.50
2023-05-19T19:59:55.154Z,2.75
2023-05-19T20:03:58.463Z,2.70
2023-05-19T20:08:01.786Z,2.60
2023-05-19T20:12:05.102Z,2.67
2023-05-19T20:16:09.743Z,2.83
2023-05-19T20:20:14.112Z,3.00
2023-05-19T20:24:17.234Z,2.92
2023-05-19T20:28:23.095Z,3.05
2023-05-19T20:32:28.603Z,2.85
2023-05-19T20:36:32.060Z,2.83
2023-05-19T20:40:35.375Z,2.78
2023-05-19T20:44:38.288Z,3.05
2023-05-19T20:48:42.614Z,2.83
2023-05-19T20:52:45.785Z,3.47
2023-05-19T20:56:48.925Z,4.70
2023-05-19T21:00:57.422Z,3.70
2023-05-19T21:05:03.474Z,2.97
2023-05-19T21:09:06.869Z,2.95
2023-05-19T21:13:09.950Z,3.20
2023-05-19T21:17:13.060Z,3.20
2023-05-19T21:21:17.845Z,3.25
2023-05-19T21:25:20.835Z,2.90
2023-05-19T21:29:27.203Z,2.95
2023-05-19T21:33:30.433Z,3.40
2023-05-19T21:37:36.528Z,3.17
2023-05-19T21:41:39.664Z,3.03
2023-05-19T21:45:42.694Z,3.35
2023-05-19T21:49:45.507Z,2.85
2023-05-19T21:53:49.683Z,3.50
2023-05-19T21:57:52.942Z,2.60
2023-05-19T22:01:55.895Z,3.08
2023-05-19T22:05:58.848Z,2.85
2023-05-19T22:10:03.315Z,2.80
2023-05-19T22:14:06.317Z,3.03
2023-05-19T22:18:09.203Z,2.88
2023-05-19T22:22:14.371Z,2.83
2023-05-19T22:26:22.020Z,3.05
2023-05-19T22:30:26.946Z,3.10
2023-05-19T22:34:30.037Z,3.50
2023-05-19T22:38:32.973Z,3.10
2023-05-19T22:42:38.454Z,3.08
2023-05-19T22:46:41.392Z,3.00
2023-05-19T22:50:44.463Z,2.70
2023-05-19T22:54:47.256Z,2.65
2023-05-19T22:58:51.356Z,2.85
2023-05-19T23:02:54.237Z,2.80
2023-05-19T23:06:57.147Z,2.40
2023-05-19T23:11:02.332Z,2.47
2023-05-19T23:15:07.802Z,2.55
2023-05-19T23:19:10.813Z,2.58
2023-05-19T23:23:13.736Z,2.45
2023-05-19T23:27:16.565Z,2.60
2023-05-19T23:31:20.811Z,2.97
2023-05-19T23:35:24.058Z,3.20
2023-05-19T23:39:27.626Z,2.72
2023-05-19T23:43:32.189Z,2.40
2023-05-19T23:47:36.501Z,2.55
2023-05-19T23:51:39.399Z,2.90
2023-05-19T23:55:42.546Z,3.40
2023-05-19T23:59:45.683Z,3.08
